Aviation Digital Data Service (ADDS)

Output produced by METARs form (0738 UTC 19 February 2019)
found at http://www.aviationweather.gov/metar/data/
 
METAR text: UHHH 190730Z 03003MPS CAVOK 01/M14 Q1016 R23L/090060 NOSIG RMK QFE755/1007
Conditions at: UHHH (KHABAROVSK/NOVY , RU) observed 0730 UTC 19 February 2019
Temperature: 1.0°C (34°F)
Dewpoint: -14.0°C ( 7°F) [RH = 32%]
Pressure (altimeter): 30.00 inches Hg (1016.0 mb)
Winds: from the NNE (30 degrees) at 7 MPH (6 knots; 3.1 m/s)
Visibility: 6 or more miles (10+ km)
Ceiling: ceiling and visibility are OK
Clouds: unknown
Weather: no significant weather observed at this time

METAR text: UHHH 190700Z 34002MPS 300V010 CAVOK 02/M14 Q1015 R23L/090060 NOSIG RMK QFE755/1007
Conditions at: UHHH (KHABAROVSK/NOVY , RU) observed 0700 UTC 19 February 2019
Temperature: 2.0°C (36°F)
Dewpoint: -14.0°C ( 7°F) [RH = 29%]
Pressure (altimeter): 29.97 inches Hg (1015.0 mb)
Winds: from the NNW (340 degrees) at 5 MPH (4 knots; 2.1 m/s)
Visibility: 6 or more miles (10+ km)
Ceiling: ceiling and visibility are OK
Clouds: unknown
Weather: no significant weather observed at this time

METAR text: UHHH 190630Z 27002MPS 230V320 CAVOK 02/M14 Q1015 R23L/090060 NOSIG RMK QFE755/1007
Conditions at: UHHH (KHABAROVSK/NOVY , RU) observed 0630 UTC 19 February 2019
Temperature: 2.0°C (36°F)
Dewpoint: -14.0°C ( 7°F) [RH = 29%]
Pressure (altimeter): 29.97 inches Hg (1015.0 mb)
Winds: from the W (270 degrees) at 5 MPH (4 knots; 2.1 m/s)
Visibility: 6 or more miles (10+ km)
Ceiling: ceiling and visibility are OK
Clouds: unknown
Weather: no significant weather observed at this time

METAR text: UHHH 190600Z 26002MPS 210V300 CAVOK 02/M13 Q1016 R23L/090060 NOSIG RMK QFE755/1007
Conditions at: UHHH (KHABAROVSK/NOVY , RU) observed 0600 UTC 19 February 2019
Temperature: 2.0°C (36°F)
Dewpoint: -13.0°C ( 9°F) [RH = 32%]
Pressure (altimeter): 30.00 inches Hg (1016.0 mb)
Winds: from the W (260 degrees) at 5 MPH (4 knots; 2.1 m/s)
Visibility: 6 or more miles (10+ km)
Ceiling: ceiling and visibility are OK
Clouds: unknown
Weather: no significant weather observed at this time

METAR text: UHHH 190530Z 27004MPS 250V310 CAVOK 02/M13 Q1016 R23L/090060 NOSIG RMK QFE755/1007
Conditions at: UHHH (KHABAROVSK/NOVY , RU) observed 0530 UTC 19 February 2019
Temperature: 2.0°C (36°F)
Dewpoint: -13.0°C ( 9°F) [RH = 32%]
Pressure (altimeter): 30.00 inches Hg (1016.0 mb)
Winds: from the W (270 degrees) at 9 MPH (8 knots; 4.1 m/s)
Visibility: 6 or more miles (10+ km)
Ceiling: ceiling and visibility are OK
Clouds: unknown
Weather: no significant weather observed at this time

METAR text: UHHH 190500Z 27004MPS 240V310 CAVOK 02/M13 Q1016 R23L/090060 NOSIG RMK QFE755/1007
Conditions at: UHHH (KHABAROVSK/NOVY , RU) observed 0500 UTC 19 February 2019
Temperature: 2.0°C (36°F)
Dewpoint: -13.0°C ( 9°F) [RH = 32%]
Pressure (altimeter): 30.00 inches Hg (1016.0 mb)
Winds: from the W (270 degrees) at 9 MPH (8 knots; 4.1 m/s)
Visibility: 6 or more miles (10+ km)
Ceiling: ceiling and visibility are OK
Clouds: unknown
Weather: no significant weather observed at this time

METAR text: UHHH 190430Z 28004MPS 230V320 CAVOK 02/M13 Q1016 R23L/090060 NOSIG RMK QFE755/1007
Conditions at: UHHH (KHABAROVSK/NOVY , RU) observed 0430 UTC 19 February 2019
Temperature: 2.0°C (36°F)
Dewpoint: -13.0°C ( 9°F) [RH = 32%]
Pressure (altimeter): 30.00 inches Hg (1016.0 mb)
Winds: from the W (280 degrees) at 9 MPH (8 knots; 4.1 m/s)
Visibility: 6 or more miles (10+ km)
Ceiling: ceiling and visibility are OK
Clouds: unknown
Weather: no significant weather observed at this time

METAR text: UHHH 190400Z 27005MPS 240V300 CAVOK 01/M13 Q1016 R23L/090060 NOSIG RMK QFE755/1007
Conditions at: UHHH (KHABAROVSK/NOVY , RU) observed 0400 UTC 19 February 2019
Temperature: 1.0°C (34°F)
Dewpoint: -13.0°C ( 9°F) [RH = 34%]
Pressure (altimeter): 30.00 inches Hg (1016.0 mb)
Winds: from the W (270 degrees) at 12 MPH (10 knots; 5.1 m/s)
Visibility: 6 or more miles (10+ km)
Ceiling: ceiling and visibility are OK
Clouds: unknown
Weather: no significant weather observed at this time

METAR text: UHHH 190330Z 28005MPS CAVOK 01/M12 Q1016 R23L/090060 NOSIG RMK QFE756/1008
Conditions at: UHHH (KHABAROVSK/NOVY , RU) observed 0330 UTC 19 February 2019
Temperature: 1.0°C (34°F)
Dewpoint: -12.0°C (10°F) [RH = 37%]
Pressure (altimeter): 30.00 inches Hg (1016.0 mb)
Winds: from the W (280 degrees) at 12 MPH (10 knots; 5.1 m/s)
Visibility: 6 or more miles (10+ km)
Ceiling: ceiling and visibility are OK
Clouds: unknown
Weather: no significant weather observed at this time

METAR text: UHHH 190300Z 27006MPS CAVOK M00/M12 Q1016 R23L/090060 NOSIG RMK QFE756/1008
Conditions at: UHHH (KHABAROVSK/NOVY , RU) observed 0300 UTC 19 February 2019
Temperature: 0.0°C (32°F)
Dewpoint: -12.0°C (10°F) [RH = 40%]
Pressure (altimeter): 30.00 inches Hg (1016.0 mb)
Winds: from the W (270 degrees) at 14 MPH (12 knots; 6.2 m/s)
Visibility: 6 or more miles (10+ km)
Ceiling: ceiling and visibility are OK
Clouds: unknown
Weather: no significant weather observed at this time

METAR text: UHHH 190230Z 27005MPS 230V300 CAVOK M01/M13 Q1016 R23L/090060 NOSIG RMK QFE756/1008
Conditions at: UHHH (KHABAROVSK/NOVY , RU) observed 0230 UTC 19 February 2019
Temperature: -1.0°C (30°F)
Dewpoint: -13.0°C ( 9°F) [RH = 40%]
Pressure (altimeter): 30.00 inches Hg (1016.0 mb)
Winds: from the W (270 degrees) at 12 MPH (10 knots; 5.1 m/s)
Visibility: 6 or more miles (10+ km)
Ceiling: ceiling and visibility are OK
Clouds: unknown
Weather: no significant weather observed at this time

METAR text: UHHH 190200Z 27006MPS CAVOK M02/M12 Q1017 R23L/090060 NOSIG RMK QFE756/1008
Conditions at: UHHH (KHABAROVSK/NOVY , RU) observed 0200 UTC 19 February 2019
Temperature: -2.0°C (28°F)
Dewpoint: -12.0°C (10°F) [RH = 46%]
Pressure (altimeter): 30.03 inches Hg (1017.0 mb)
Winds: from the W (270 degrees) at 14 MPH (12 knots; 6.2 m/s)
Visibility: 6 or more miles (10+ km)
Ceiling: ceiling and visibility are OK
Clouds: unknown
Weather: no significant weather observed at this time

METAR text: UHHH 190130Z 26006MPS CAVOK M02/M13 Q1016 R23L/090060 NOSIG RMK QFE756/1008
Conditions at: UHHH (KHABAROVSK/NOVY , RU) observed 0130 UTC 19 February 2019
Temperature: -2.0°C (28°F)
Dewpoint: -13.0°C ( 9°F) [RH = 43%]
Pressure (altimeter): 30.00 inches Hg (1016.0 mb)
Winds: from the W (260 degrees) at 14 MPH (12 knots; 6.2 m/s)
Visibility: 6 or more miles (10+ km)
Ceiling: ceiling and visibility are OK
Clouds: unknown
Weather: no significant weather observed at this time

METAR text: UHHH 190100Z 27006MPS CAVOK M03/M13 Q1016 R23L/090060 NOSIG RMK QFE756/1008
Conditions at: UHHH (KHABAROVSK/NOVY , RU) observed 0100 UTC 19 February 2019
Temperature: -3.0°C (27°F)
Dewpoint: -13.0°C ( 9°F) [RH = 46%]
Pressure (altimeter): 30.00 inches Hg (1016.0 mb)
Winds: from the W (270 degrees) at 14 MPH (12 knots; 6.2 m/s)
Visibility: 6 or more miles (10+ km)
Ceiling: ceiling and visibility are OK
Clouds: unknown
Weather: no significant weather observed at this time

METAR text: UHHH 190030Z 27006MPS CAVOK M04/M13 Q1016 R23L/090060 NOSIG RMK QFE756/1008
Conditions at: UHHH (KHABAROVSK/NOVY , RU) observed 0030 UTC 19 February 2019
Temperature: -4.0°C (25°F)
Dewpoint: -13.0°C ( 9°F) [RH = 50%]
Pressure (altimeter): 30.00 inches Hg (1016.0 mb)
Winds: from the W (270 degrees) at 14 MPH (12 knots; 6.2 m/s)
Visibility: 6 or more miles (10+ km)
Ceiling: ceiling and visibility are OK
Clouds: unknown
Weather: no significant weather observed at this time

METAR text: UHHH 190000Z 25006MPS CAVOK M05/M13 Q1016 R23L/090060 NOSIG RMK QFE755/1007
Conditions at: UHHH (KHABAROVSK/NOVY , RU) observed 0000 UTC 19 February 2019
Temperature: -5.0°C (23°F)
Dewpoint: -13.0°C ( 9°F) [RH = 53%]
Pressure (altimeter): 30.00 inches Hg (1016.0 mb)
Winds: from the WSW (250 degrees) at 14 MPH (12 knots; 6.2 m/s)
Visibility: 6 or more miles (10+ km)
Ceiling: ceiling and visibility are OK
Clouds: unknown
Weather: no significant weather observed at this time

METAR text: UHHH 182330Z 24005MPS CAVOK M05/M13 Q1016 R23L/090060 NOSIG RMK QFE755/1007
Conditions at: UHHH (KHABAROVSK/NOVY , RU) observed 2330 UTC 18 February 2019
Temperature: -5.0°C (23°F)
Dewpoint: -13.0°C ( 9°F) [RH = 53%]
Pressure (altimeter): 30.00 inches Hg (1016.0 mb)
Winds: from the WSW (240 degrees) at 12 MPH (10 knots; 5.1 m/s)
Visibility: 6 or more miles (10+ km)
Ceiling: ceiling and visibility are OK
Clouds: unknown
Weather: no significant weather observed at this time

METAR text: UHHH 182300Z 25005MPS CAVOK M07/M13 Q1016 R23L/090060 NOSIG RMK QFE755/1007
Conditions at: UHHH (KHABAROVSK/NOVY , RU) observed 2300 UTC 18 February 2019
Temperature: -7.0°C (19°F)
Dewpoint: -13.0°C ( 9°F) [RH = 62%]
Pressure (altimeter): 30.00 inches Hg (1016.0 mb)
Winds: from the WSW (250 degrees) at 12 MPH (10 knots; 5.1 m/s)
Visibility: 6 or more miles (10+ km)
Ceiling: ceiling and visibility are OK
Clouds: unknown
Weather: no significant weather observed at this time

METAR text: UHHH 182230Z 25005MPS CAVOK M07/M13 Q1016 R23L/090060 NOSIG RMK QFE755/1007
Conditions at: UHHH (KHABAROVSK/NOVY , RU) observed 2230 UTC 18 February 2019
Temperature: -7.0°C (19°F)
Dewpoint: -13.0°C ( 9°F) [RH = 62%]
Pressure (altimeter): 30.00 inches Hg (1016.0 mb)
Winds: from the WSW (250 degrees) at 12 MPH (10 knots; 5.1 m/s)
Visibility: 6 or more miles (10+ km)
Ceiling: ceiling and visibility are OK
Clouds: unknown
Weather: no significant weather observed at this time

METAR text: UHHH 182200Z 24005MPS CAVOK M07/M13 Q1015 R23L/090060 NOSIG RMK QFE755/1007
Conditions at: UHHH (KHABAROVSK/NOVY , RU) observed 2200 UTC 18 February 2019
Temperature: -7.0°C (19°F)
Dewpoint: -13.0°C ( 9°F) [RH = 62%]
Pressure (altimeter): 29.97 inches Hg (1015.0 mb)
Winds: from the WSW (240 degrees) at 12 MPH (10 knots; 5.1 m/s)
Visibility: 6 or more miles (10+ km)
Ceiling: ceiling and visibility are OK
Clouds: unknown
Weather: no significant weather observed at this time

METAR text: UHHH 182130Z 25005MPS CAVOK M07/M13 Q1015 R23L/090060 NOSIG RMK QFE755/1007
Conditions at: UHHH (KHABAROVSK/NOVY , RU) observed 2130 UTC 18 February 2019
Temperature: -7.0°C (19°F)
Dewpoint: -13.0°C ( 9°F) [RH = 62%]
Pressure (altimeter): 29.97 inches Hg (1015.0 mb)
Winds: from the WSW (250 degrees) at 12 MPH (10 knots; 5.1 m/s)
Visibility: 6 or more miles (10+ km)
Ceiling: ceiling and visibility are OK
Clouds: unknown
Weather: no significant weather observed at this time

METAR text: UHHH 182100Z 25002MPS CAVOK M08/M13 Q1015 R23L/090060 NOSIG RMK QFE755/1007
Conditions at: UHHH (KHABAROVSK/NOVY , RU) observed 2100 UTC 18 February 2019
Temperature: -8.0°C (18°F)
Dewpoint: -13.0°C ( 9°F) [RH = 67%]
Pressure (altimeter): 29.97 inches Hg (1015.0 mb)
Winds: from the WSW (250 degrees) at 5 MPH (4 knots; 2.1 m/s)
Visibility: 6 or more miles (10+ km)
Ceiling: ceiling and visibility are OK
Clouds: unknown
Weather: no significant weather observed at this time

METAR text: UHHH 182030Z 25003MPS CAVOK M08/M13 Q1015 R23L/090060 NOSIG RMK QFE755/1007
Conditions at: UHHH (KHABAROVSK/NOVY , RU) observed 2030 UTC 18 February 2019
Temperature: -8.0°C (18°F)
Dewpoint: -13.0°C ( 9°F) [RH = 67%]
Pressure (altimeter): 29.97 inches Hg (1015.0 mb)
Winds: from the WSW (250 degrees) at 7 MPH (6 knots; 3.1 m/s)
Visibility: 6 or more miles (10+ km)
Ceiling: ceiling and visibility are OK
Clouds: unknown
Weather: no significant weather observed at this time

METAR text: UHHH 182000Z 25006MPS CAVOK M06/M12 Q1015 R23L/090060 NOSIG RMK QFE755/1006
Conditions at: UHHH (KHABAROVSK/NOVY , RU) observed 2000 UTC 18 February 2019
Temperature: -6.0°C (21°F)
Dewpoint: -12.0°C (10°F) [RH = 62%]
Pressure (altimeter): 29.97 inches Hg (1015.0 mb)
Winds: from the WSW (250 degrees) at 14 MPH (12 knots; 6.2 m/s)
Visibility: 6 or more miles (10+ km)
Ceiling: ceiling and visibility are OK
Clouds: unknown
Weather: no significant weather observed at this time

METAR text: UHHH 181930Z 25007MPS CAVOK M06/M12 Q1015 R23L/090060 NOSIG RMK QFE755/1006
Conditions at: UHHH (KHABAROVSK/NOVY , RU) observed 1930 UTC 18 February 2019
Temperature: -6.0°C (21°F)
Dewpoint: -12.0°C (10°F) [RH = 62%]
Pressure (altimeter): 29.97 inches Hg (1015.0 mb)
Winds: from the WSW (250 degrees) at 16 MPH (14 knots; 7.2 m/s)
Visibility: 6 or more miles (10+ km)
Ceiling: ceiling and visibility are OK
Clouds: unknown
Weather: no significant weather observed at this time

METAR text: UHHH 181900Z 25006MPS CAVOK M06/M12 Q1015 R23L/090060 NOSIG RMK QFE754/1006
Conditions at: UHHH (KHABAROVSK/NOVY , RU) observed 1900 UTC 18 February 2019
Temperature: -6.0°C (21°F)
Dewpoint: -12.0°C (10°F) [RH = 62%]
Pressure (altimeter): 29.97 inches Hg (1015.0 mb)
Winds: from the WSW (250 degrees) at 14 MPH (12 knots; 6.2 m/s)
Visibility: 6 or more miles (10+ km)
Ceiling: ceiling and visibility are OK
Clouds: unknown
Weather: no significant weather observed at this time

METAR text: UHHH 181830Z 25005MPS CAVOK M06/M11 Q1014 R23L/090060 NOSIG RMK QFE754/1006
Conditions at: UHHH (KHABAROVSK/NOVY , RU) observed 1830 UTC 18 February 2019
Temperature: -6.0°C (21°F)
Dewpoint: -11.0°C (12°F) [RH = 68%]
Pressure (altimeter): 29.94 inches Hg (1014.0 mb)
Winds: from the WSW (250 degrees) at 12 MPH (10 knots; 5.1 m/s)
Visibility: 6 or more miles (10+ km)
Ceiling: ceiling and visibility are OK
Clouds: unknown
Weather: no significant weather observed at this time

METAR text: UHHH 181800Z 25004MPS CAVOK M09/M14 Q1014 R23L/090060 NOSIG RMK QFE754/1006
Conditions at: UHHH (KHABAROVSK/NOVY , RU) observed 1800 UTC 18 February 2019
Temperature: -9.0°C (16°F)
Dewpoint: -14.0°C ( 7°F) [RH = 67%]
Pressure (altimeter): 29.94 inches Hg (1014.0 mb)
Winds: from the WSW (250 degrees) at 9 MPH (8 knots; 4.1 m/s)
Visibility: 6 or more miles (10+ km)
Ceiling: ceiling and visibility are OK
Clouds: unknown
Weather: no significant weather observed at this time

METAR text: UHHH 181730Z 25005MPS CAVOK M05/M12 Q1014 R23L/090060 NOSIG RMK QFE754/1006
Conditions at: UHHH (KHABAROVSK/NOVY , RU) observed 1730 UTC 18 February 2019
Temperature: -5.0°C (23°F)
Dewpoint: -12.0°C (10°F) [RH = 58%]
Pressure (altimeter): 29.94 inches Hg (1014.0 mb)
Winds: from the WSW (250 degrees) at 12 MPH (10 knots; 5.1 m/s)
Visibility: 6 or more miles (10+ km)
Ceiling: ceiling and visibility are OK
Clouds: unknown
Weather: no significant weather observed at this time

METAR text: UHHH 181700Z 25005MPS CAVOK M05/M12 Q1014 R23L/090060 NOSIG RMK QFE754/1006
Conditions at: UHHH (KHABAROVSK/NOVY , RU) observed 1700 UTC 18 February 2019
Temperature: -5.0°C (23°F)
Dewpoint: -12.0°C (10°F) [RH = 58%]
Pressure (altimeter): 29.94 inches Hg (1014.0 mb)
Winds: from the WSW (250 degrees) at 12 MPH (10 knots; 5.1 m/s)
Visibility: 6 or more miles (10+ km)
Ceiling: ceiling and visibility are OK
Clouds: unknown
Weather: no significant weather observed at this time

METAR text: UHHH 181630Z 25005MPS CAVOK M05/M12 Q1014 R23L/090060 NOSIG RMK QFE754/1006
Conditions at: UHHH (KHABAROVSK/NOVY , RU) observed 1630 UTC 18 February 2019
Temperature: -5.0°C (23°F)
Dewpoint: -12.0°C (10°F) [RH = 58%]
Pressure (altimeter): 29.94 inches Hg (1014.0 mb)
Winds: from the WSW (250 degrees) at 12 MPH (10 knots; 5.1 m/s)
Visibility: 6 or more miles (10+ km)
Ceiling: ceiling and visibility are OK
Clouds: unknown
Weather: no significant weather observed at this time

METAR text: UHHH 181600Z 25004MPS CAVOK M06/M12 Q1014 R23L/090060 NOSIG RMK QFE754/1006
Conditions at: UHHH (KHABAROVSK/NOVY , RU) observed 1600 UTC 18 February 2019
Temperature: -6.0°C (21°F)
Dewpoint: -12.0°C (10°F) [RH = 62%]
Pressure (altimeter): 29.94 inches Hg (1014.0 mb)
Winds: from the WSW (250 degrees) at 9 MPH (8 knots; 4.1 m/s)
Visibility: 6 or more miles (10+ km)
Ceiling: ceiling and visibility are OK
Clouds: unknown
Weather: no significant weather observed at this time

METAR text: UHHH 181530Z 25005MPS CAVOK M05/M12 Q1014 R23L/090060 NOSIG RMK QFE754/1006
Conditions at: UHHH (KHABAROVSK/NOVY , RU) observed 1530 UTC 18 February 2019
Temperature: -5.0°C (23°F)
Dewpoint: -12.0°C (10°F) [RH = 58%]
Pressure (altimeter): 29.94 inches Hg (1014.0 mb)
Winds: from the WSW (250 degrees) at 12 MPH (10 knots; 5.1 m/s)
Visibility: 6 or more miles (10+ km)
Ceiling: ceiling and visibility are OK
Clouds: unknown
Weather: no significant weather observed at this time

METAR text: UHHH 181500Z 23005MPS CAVOK M05/M13 Q1014 R23L/090060 NOSIG RMK QFE754/1006
Conditions at: UHHH (KHABAROVSK/NOVY , RU) observed 1500 UTC 18 February 2019
Temperature: -5.0°C (23°F)
Dewpoint: -13.0°C ( 9°F) [RH = 53%]
Pressure (altimeter): 29.94 inches Hg (1014.0 mb)
Winds: from the SW (230 degrees) at 12 MPH (10 knots; 5.1 m/s)
Visibility: 6 or more miles (10+ km)
Ceiling: ceiling and visibility are OK
Clouds: unknown
Weather: no significant weather observed at this time

METAR text: UHHH 181430Z 23002MPS 9000 NSC M06/M13 Q1014 R23L/090060 NOSIG RMK QFE754/1005
Conditions at: UHHH (KHABAROVSK/NOVY , RU) observed 1430 UTC 18 February 2019
Temperature: -6.0°C (21°F)
Dewpoint: -13.0°C ( 9°F) [RH = 58%]
Pressure (altimeter): 29.94 inches Hg (1014.0 mb)
Winds: from the SW (230 degrees) at 5 MPH (4 knots; 2.1 m/s)
Visibility: 6 miles ( 9 km)
Ceiling: at least 12,000 feet AGL
Clouds: sky clear below 12,000 feet AGL
Weather: no significant weather observed at this time

METAR text: UHHH 181400Z 19002MPS 9000 NSC M06/M13 Q1014 R23L/090060 NOSIG RMK QFE754/1005
Conditions at: UHHH (KHABAROVSK/NOVY , RU) observed 1400 UTC 18 February 2019
Temperature: -6.0°C (21°F)
Dewpoint: -13.0°C ( 9°F) [RH = 58%]
Pressure (altimeter): 29.94 inches Hg (1014.0 mb)
Winds: from the S (190 degrees) at 5 MPH (4 knots; 2.1 m/s)
Visibility: 6 miles ( 9 km)
Ceiling: at least 12,000 feet AGL
Clouds: sky clear below 12,000 feet AGL
Weather: no significant weather observed at this time

METAR text: UHHH 181330Z 18002MPS 9000 NSC M05/M13 Q1014 R23L/090060 NOSIG RMK QFE754/1006
Conditions at: UHHH (KHABAROVSK/NOVY , RU) observed 1330 UTC 18 February 2019
Temperature: -5.0°C (23°F)
Dewpoint: -13.0°C ( 9°F) [RH = 53%]
Pressure (altimeter): 29.94 inches Hg (1014.0 mb)
Winds: from the S (180 degrees) at 5 MPH (4 knots; 2.1 m/s)
Visibility: 6 miles ( 9 km)
Ceiling: at least 12,000 feet AGL
Clouds: sky clear below 12,000 feet AGL
Weather: no significant weather observed at this time

METAR text: UHHH 181300Z 18001MPS CAVOK M06/M13 Q1014 R23L/090060 NOSIG RMK QFE754/1006
Conditions at: UHHH (KHABAROVSK/NOVY , RU) observed 1300 UTC 18 February 2019
Temperature: -6.0°C (21°F)
Dewpoint: -13.0°C ( 9°F) [RH = 58%]
Pressure (altimeter): 29.94 inches Hg (1014.0 mb)
Winds: from the S (180 degrees) at 2 MPH (2 knots; 1.0 m/s)
Visibility: 6 or more miles (10+ km)
Ceiling: ceiling and visibility are OK
Clouds: unknown
Weather: no significant weather observed at this time

METAR text: UHHH 181230Z 16002MPS CAVOK M06/M13 Q1014 R23L/090060 NOSIG RMK QFE754/1005
Conditions at: UHHH (KHABAROVSK/NOVY , RU) observed 1230 UTC 18 February 2019
Temperature: -6.0°C (21°F)
Dewpoint: -13.0°C ( 9°F) [RH = 58%]
Pressure (altimeter): 29.94 inches Hg (1014.0 mb)
Winds: from the SSE (160 degrees) at 5 MPH (4 knots; 2.1 m/s)
Visibility: 6 or more miles (10+ km)
Ceiling: ceiling and visibility are OK
Clouds: unknown
Weather: no significant weather observed at this time

METAR text: UHHH 181200Z 00000MPS CAVOK M05/M13 Q1014 R23L/090060 NOSIG RMK QFE754/1005
Conditions at: UHHH (KHABAROVSK/NOVY , RU) observed 1200 UTC 18 February 2019
Temperature: -5.0°C (23°F)
Dewpoint: -13.0°C ( 9°F) [RH = 53%]
Pressure (altimeter): 29.94 inches Hg (1014.0 mb)
Winds: calm
Visibility: 6 or more miles (10+ km)
Ceiling: ceiling and visibility are OK
Clouds: unknown
Weather: no significant weather observed at this time

METAR text: UHHH 181130Z 21001MPS 9000 NSC M04/M13 Q1014 R23L/090060 NOSIG RMK QFE754/1005
Conditions at: UHHH (KHABAROVSK/NOVY , RU) observed 1130 UTC 18 February 2019
Temperature: -4.0°C (25°F)
Dewpoint: -13.0°C ( 9°F) [RH = 50%]
Pressure (altimeter): 29.94 inches Hg (1014.0 mb)
Winds: from the SSW (210 degrees) at 2 MPH (2 knots; 1.0 m/s)
Visibility: 6 miles ( 9 km)
Ceiling: at least 12,000 feet AGL
Clouds: sky clear below 12,000 feet AGL
Weather: no significant weather observed at this time

METAR text: UHHH 181100Z 21003MPS CAVOK M03/M13 Q1014 R23L/090060 NOSIG RMK QFE754/1005
Conditions at: UHHH (KHABAROVSK/NOVY , RU) observed 1100 UTC 18 February 2019
Temperature: -3.0°C (27°F)
Dewpoint: -13.0°C ( 9°F) [RH = 46%]
Pressure (altimeter): 29.94 inches Hg (1014.0 mb)
Winds: from the SSW (210 degrees) at 7 MPH (6 knots; 3.1 m/s)
Visibility: 6 or more miles (10+ km)
Ceiling: ceiling and visibility are OK
Clouds: unknown
Weather: no significant weather observed at this time

METAR text: UHHH 181030Z 22003MPS CAVOK M05/M13 Q1014 R23L/090060 NOSIG RMK QFE754/1005
Conditions at: UHHH (KHABAROVSK/NOVY , RU) observed 1030 UTC 18 February 2019
Temperature: -5.0°C (23°F)
Dewpoint: -13.0°C ( 9°F) [RH = 53%]
Pressure (altimeter): 29.94 inches Hg (1014.0 mb)
Winds: from the SW (220 degrees) at 7 MPH (6 knots; 3.1 m/s)
Visibility: 6 or more miles (10+ km)
Ceiling: ceiling and visibility are OK
Clouds: unknown
Weather: no significant weather observed at this time

METAR text: UHHH 181000Z 22003MPS CAVOK M03/M13 Q1013 R23L/090060 NOSIG RMK QFE753/1005
Conditions at: UHHH (KHABAROVSK/NOVY , RU) observed 1000 UTC 18 February 2019
Temperature: -3.0°C (27°F)
Dewpoint: -13.0°C ( 9°F) [RH = 46%]
Pressure (altimeter): 29.91 inches Hg (1013.0 mb)
Winds: from the SW (220 degrees) at 7 MPH (6 knots; 3.1 m/s)
Visibility: 6 or more miles (10+ km)
Ceiling: ceiling and visibility are OK
Clouds: unknown
Weather: no significant weather observed at this time

METAR text: UHHH 180930Z 22003MPS CAVOK M02/M12 Q1013 R23L/090060 NOSIG RMK QFE753/1005
Conditions at: UHHH (KHABAROVSK/NOVY , RU) observed 0930 UTC 18 February 2019
Temperature: -2.0°C (28°F)
Dewpoint: -12.0°C (10°F) [RH = 46%]
Pressure (altimeter): 29.91 inches Hg (1013.0 mb)
Winds: from the SW (220 degrees) at 7 MPH (6 knots; 3.1 m/s)
Visibility: 6 or more miles (10+ km)
Ceiling: ceiling and visibility are OK
Clouds: unknown
Weather: no significant weather observed at this time

METAR text: UHHH 180900Z 22003MPS CAVOK M01/M12 Q1013 R23L/090060 NOSIG RMK QFE753/1005
Conditions at: UHHH (KHABAROVSK/NOVY , RU) observed 0900 UTC 18 February 2019
Temperature: -1.0°C (30°F)
Dewpoint: -12.0°C (10°F) [RH = 43%]
Pressure (altimeter): 29.91 inches Hg (1013.0 mb)
Winds: from the SW (220 degrees) at 7 MPH (6 knots; 3.1 m/s)
Visibility: 6 or more miles (10+ km)
Ceiling: ceiling and visibility are OK
Clouds: unknown
Weather: no significant weather observed at this time

METAR text: UHHH 180830Z 24005MPS CAVOK M01/M12 Q1013 R23L/090060 NOSIG RMK QFE753/1005
Conditions at: UHHH (KHABAROVSK/NOVY , RU) observed 0830 UTC 18 February 2019
Temperature: -1.0°C (30°F)
Dewpoint: -12.0°C (10°F) [RH = 43%]
Pressure (altimeter): 29.91 inches Hg (1013.0 mb)
Winds: from the WSW (240 degrees) at 12 MPH (10 knots; 5.1 m/s)
Visibility: 6 or more miles (10+ km)
Ceiling: ceiling and visibility are OK
Clouds: unknown
Weather: no significant weather observed at this time

METAR text: UHHH 180800Z 25007MPS CAVOK M00/M13 Q1013 R23L/090060 NOSIG RMK QFE753/1005
Conditions at: UHHH (KHABAROVSK/NOVY , RU) observed 0800 UTC 18 February 2019
Temperature: 0.0°C (32°F)
Dewpoint: -13.0°C ( 9°F) [RH = 37%]
Pressure (altimeter): 29.91 inches Hg (1013.0 mb)
Winds: from the WSW (250 degrees) at 16 MPH (14 knots; 7.2 m/s)
Visibility: 6 or more miles (10+ km)
Ceiling: ceiling and visibility are OK
Clouds: unknown
Weather: no significant weather observed at this time

METAR text: UHHH 180730Z 24009MPS CAVOK 00/M13 Q1013 R23L/090060 NOSIG RMK QFE753/1004
Conditions at: UHHH (KHABAROVSK/NOVY , RU) observed 0730 UTC 18 February 2019
Temperature: 0.0°C (32°F)
Dewpoint: -13.0°C ( 9°F) [RH = 37%]
Pressure (altimeter): 29.91 inches Hg (1013.0 mb)
Winds: from the WSW (240 degrees) at 20 MPH (17 knots; 8.7 m/s)
Visibility: 6 or more miles (10+ km)
Ceiling: ceiling and visibility are OK
Clouds: unknown
Weather: no significant weather observed at this time

METAR text: UHHH 180700Z 24010MPS CAVOK 01/M13 Q1013 WS R23L R23L/090060 NOSIG RMK QFE753/1004
Conditions at: UHHH (KHABAROVSK/NOVY , RU) observed 0700 UTC 18 February 2019
Temperature: 1.0°C (34°F)
Dewpoint: -13.0°C ( 9°F) [RH = 34%]
Pressure (altimeter): 29.91 inches Hg (1013.0 mb)
Winds: from the WSW (240 degrees) at 22 MPH (19 knots; 9.8 m/s)
Visibility: 6 or more miles (10+ km)
Ceiling: ceiling and visibility are OK
Clouds: unknown
Weather: no significant weather observed at this time

METAR text: UHHH 180630Z 24009MPS CAVOK 01/M12 Q1013 WS R23L R23L/090060 NOSIG RMK QFE753/1004
Conditions at: UHHH (KHABAROVSK/NOVY , RU) observed 0630 UTC 18 February 2019
Temperature: 1.0°C (34°F)
Dewpoint: -12.0°C (10°F) [RH = 37%]
Pressure (altimeter): 29.91 inches Hg (1013.0 mb)
Winds: from the WSW (240 degrees) at 20 MPH (17 knots; 8.7 m/s)
Visibility: 6 or more miles (10+ km)
Ceiling: ceiling and visibility are OK
Clouds: unknown
Weather: no significant weather observed at this time

METAR text: UHHH 180600Z 24010MPS CAVOK 01/M12 Q1013 R23L/090060 NOSIG RMK QFE753/1004
Conditions at: UHHH (KHABAROVSK/NOVY , RU) observed 0600 UTC 18 February 2019
Temperature: 1.0°C (34°F)
Dewpoint: -12.0°C (10°F) [RH = 37%]
Pressure (altimeter): 29.91 inches Hg (1013.0 mb)
Winds: from the WSW (240 degrees) at 22 MPH (19 knots; 9.8 m/s)
Visibility: 6 or more miles (10+ km)
Ceiling: ceiling and visibility are OK
Clouds: unknown
Weather: no significant weather observed at this time

METAR text: UHHH 180530Z 24008MPS CAVOK 01/M12 Q1013 R23L/090060 NOSIG RMK QFE753/1004
Conditions at: UHHH (KHABAROVSK/NOVY , RU) observed 0530 UTC 18 February 2019
Temperature: 1.0°C (34°F)
Dewpoint: -12.0°C (10°F) [RH = 37%]
Pressure (altimeter): 29.91 inches Hg (1013.0 mb)
Winds: from the WSW (240 degrees) at 18 MPH (16 knots; 8.2 m/s)
Visibility: 6 or more miles (10+ km)
Ceiling: ceiling and visibility are OK
Clouds: unknown
Weather: no significant weather observed at this time

METAR text: UHHH 180500Z 24009MPS CAVOK M00/M13 Q1013 R23L/090060 NOSIG RMK QFE753/1004
Conditions at: UHHH (KHABAROVSK/NOVY , RU) observed 0500 UTC 18 February 2019
Temperature: 0.0°C (32°F)
Dewpoint: -13.0°C ( 9°F) [RH = 37%]
Pressure (altimeter): 29.91 inches Hg (1013.0 mb)
Winds: from the WSW (240 degrees) at 20 MPH (17 knots; 8.7 m/s)
Visibility: 6 or more miles (10+ km)
Ceiling: ceiling and visibility are OK
Clouds: unknown
Weather: no significant weather observed at this time

METAR text: UHHH 180430Z 24008MPS CAVOK M01/M13 Q1013 R23L/090060 NOSIG RMK QFE753/1004
Conditions at: UHHH (KHABAROVSK/NOVY , RU) observed 0430 UTC 18 February 2019
Temperature: -1.0°C (30°F)
Dewpoint: -13.0°C ( 9°F) [RH = 40%]
Pressure (altimeter): 29.91 inches Hg (1013.0 mb)
Winds: from the WSW (240 degrees) at 18 MPH (16 knots; 8.2 m/s)
Visibility: 6 or more miles (10+ km)
Ceiling: ceiling and visibility are OK
Clouds: unknown
Weather: no significant weather observed at this time

METAR text: UHHH 180400Z 24008MPS CAVOK M01/M15 Q1013 R23L/090060 NOSIG RMK QFE753/1005
Conditions at: UHHH (KHABAROVSK/NOVY , RU) observed 0400 UTC 18 February 2019
Temperature: -1.0°C (30°F)
Dewpoint: -15.0°C ( 5°F) [RH = 34%]
Pressure (altimeter): 29.91 inches Hg (1013.0 mb)
Winds: from the WSW (240 degrees) at 18 MPH (16 knots; 8.2 m/s)
Visibility: 6 or more miles (10+ km)
Ceiling: ceiling and visibility are OK
Clouds: unknown
Weather: no significant weather observed at this time

METAR text: UHHH 180330Z 24008MPS CAVOK M01/M15 Q1013 R23L/090060 NOSIG RMK QFE753/1005
Conditions at: UHHH (KHABAROVSK/NOVY , RU) observed 0330 UTC 18 February 2019
Temperature: -1.0°C (30°F)
Dewpoint: -15.0°C ( 5°F) [RH = 34%]
Pressure (altimeter): 29.91 inches Hg (1013.0 mb)
Winds: from the WSW (240 degrees) at 18 MPH (16 knots; 8.2 m/s)
Visibility: 6 or more miles (10+ km)
Ceiling: ceiling and visibility are OK
Clouds: unknown
Weather: no significant weather observed at this time

METAR text: UHHH 180300Z 25007MPS CAVOK M02/M15 Q1014 R23L/090060 NOSIG RMK QFE754/1005
Conditions at: UHHH (KHABAROVSK/NOVY , RU) observed 0300 UTC 18 February 2019
Temperature: -2.0°C (28°F)
Dewpoint: -15.0°C ( 5°F) [RH = 36%]
Pressure (altimeter): 29.94 inches Hg (1014.0 mb)
Winds: from the WSW (250 degrees) at 16 MPH (14 knots; 7.2 m/s)
Visibility: 6 or more miles (10+ km)
Ceiling: ceiling and visibility are OK
Clouds: unknown
Weather: no significant weather observed at this time

METAR text: UHHH 180230Z 25007MPS CAVOK M03/M14 Q1014 R23L/090060 NOSIG RMK QFE754/1005
Conditions at: UHHH (KHABAROVSK/NOVY , RU) observed 0230 UTC 18 February 2019
Temperature: -3.0°C (27°F)
Dewpoint: -14.0°C ( 7°F) [RH = 42%]
Pressure (altimeter): 29.94 inches Hg (1014.0 mb)
Winds: from the WSW (250 degrees) at 16 MPH (14 knots; 7.2 m/s)
Visibility: 6 or more miles (10+ km)
Ceiling: ceiling and visibility are OK
Clouds: unknown
Weather: no significant weather observed at this time

METAR text: UHHH 180200Z 25007MPS CAVOK M04/M14 Q1014 R23L/090060 NOSIG RMK QFE754/1006
Conditions at: UHHH (KHABAROVSK/NOVY , RU) observed 0200 UTC 18 February 2019
Temperature: -4.0°C (25°F)
Dewpoint: -14.0°C ( 7°F) [RH = 46%]
Pressure (altimeter): 29.94 inches Hg (1014.0 mb)
Winds: from the WSW (250 degrees) at 16 MPH (14 knots; 7.2 m/s)
Visibility: 6 or more miles (10+ km)
Ceiling: ceiling and visibility are OK
Clouds: unknown
Weather: no significant weather observed at this time

METAR text: UHHH 180130Z 26007MPS CAVOK M04/M15 Q1014 R23L/090060 NOSIG RMK QFE754/1006
Conditions at: UHHH (KHABAROVSK/NOVY , RU) observed 0130 UTC 18 February 2019
Temperature: -4.0°C (25°F)
Dewpoint: -15.0°C ( 5°F) [RH = 42%]
Pressure (altimeter): 29.94 inches Hg (1014.0 mb)
Winds: from the W (260 degrees) at 16 MPH (14 knots; 7.2 m/s)
Visibility: 6 or more miles (10+ km)
Ceiling: ceiling and visibility are OK
Clouds: unknown
Weather: no significant weather observed at this time

METAR text: UHHH 180100Z 26008MPS CAVOK M05/M15 Q1014 R23L/090060 NOSIG RMK QFE754/1006
Conditions at: UHHH (KHABAROVSK/NOVY , RU) observed 0100 UTC 18 February 2019
Temperature: -5.0°C (23°F)
Dewpoint: -15.0°C ( 5°F) [RH = 45%]
Pressure (altimeter): 29.94 inches Hg (1014.0 mb)
Winds: from the W (260 degrees) at 18 MPH (16 knots; 8.2 m/s)
Visibility: 6 or more miles (10+ km)
Ceiling: ceiling and visibility are OK
Clouds: unknown
Weather: no significant weather observed at this time

METAR text: UHHH 180030Z 26008MPS CAVOK M05/M15 Q1014 R23L/090060 NOSIG RMK QFE754/1005
Conditions at: UHHH (KHABAROVSK/NOVY , RU) observed 0030 UTC 18 February 2019
Temperature: -5.0°C (23°F)
Dewpoint: -15.0°C ( 5°F) [RH = 45%]
Pressure (altimeter): 29.94 inches Hg (1014.0 mb)
Winds: from the W (260 degrees) at 18 MPH (16 knots; 8.2 m/s)
Visibility: 6 or more miles (10+ km)
Ceiling: ceiling and visibility are OK
Clouds: unknown
Weather: no significant weather observed at this time

METAR text: UHHH 180000Z 27006MPS CAVOK M08/M16 Q1014 R23L/090060 NOSIG RMK QFE754/1005
Conditions at: UHHH (KHABAROVSK/NOVY , RU) observed 0000 UTC 18 February 2019
Temperature: -8.0°C (18°F)
Dewpoint: -16.0°C ( 3°F) [RH = 53%]
Pressure (altimeter): 29.94 inches Hg (1014.0 mb)
Winds: from the W (270 degrees) at 14 MPH (12 knots; 6.2 m/s)
Visibility: 6 or more miles (10+ km)
Ceiling: ceiling and visibility are OK
Clouds: unknown
Weather: no significant weather observed at this time

METAR text: UHHH 172330Z 27007MPS CAVOK M08/M16 Q1014 R23L/090060 NOSIG RMK QFE754/1005
Conditions at: UHHH (KHABAROVSK/NOVY , RU) observed 2330 UTC 17 February 2019
Temperature: -8.0°C (18°F)
Dewpoint: -16.0°C ( 3°F) [RH = 53%]
Pressure (altimeter): 29.94 inches Hg (1014.0 mb)
Winds: from the W (270 degrees) at 16 MPH (14 knots; 7.2 m/s)
Visibility: 6 or more miles (10+ km)
Ceiling: ceiling and visibility are OK
Clouds: unknown
Weather: no significant weather observed at this time

METAR text: UHHH 172300Z 27007MPS CAVOK M08/M16 Q1013 R23L/090060 NOSIG RMK QFE753/1005
Conditions at: UHHH (KHABAROVSK/NOVY , RU) observed 2300 UTC 17 February 2019
Temperature: -8.0°C (18°F)
Dewpoint: -16.0°C ( 3°F) [RH = 53%]
Pressure (altimeter): 29.91 inches Hg (1013.0 mb)
Winds: from the W (270 degrees) at 16 MPH (14 knots; 7.2 m/s)
Visibility: 6 or more miles (10+ km)
Ceiling: ceiling and visibility are OK
Clouds: unknown
Weather: no significant weather observed at this time

METAR text: UHHH 172230Z 26005MPS CAVOK M08/M16 Q1013 R23L/090060 NOSIG RMK QFE753/1004
Conditions at: UHHH (KHABAROVSK/NOVY , RU) observed 2230 UTC 17 February 2019
Temperature: -8.0°C (18°F)
Dewpoint: -16.0°C ( 3°F) [RH = 53%]
Pressure (altimeter): 29.91 inches Hg (1013.0 mb)
Winds: from the W (260 degrees) at 12 MPH (10 knots; 5.1 m/s)
Visibility: 6 or more miles (10+ km)
Ceiling: ceiling and visibility are OK
Clouds: unknown
Weather: no significant weather observed at this time

METAR text: UHHH 172200Z 27005MPS CAVOK M09/M16 Q1013 R23L/090060 NOSIG RMK QFE753/1004
Conditions at: UHHH (KHABAROVSK/NOVY , RU) observed 2200 UTC 17 February 2019
Temperature: -9.0°C (16°F)
Dewpoint: -16.0°C ( 3°F) [RH = 57%]
Pressure (altimeter): 29.91 inches Hg (1013.0 mb)
Winds: from the W (270 degrees) at 12 MPH (10 knots; 5.1 m/s)
Visibility: 6 or more miles (10+ km)
Ceiling: ceiling and visibility are OK
Clouds: unknown
Weather: no significant weather observed at this time

METAR text: UHHH 172130Z 26007MPS CAVOK M09/M16 Q1012 R23L/090060 NOSIG RMK QFE753/1004
Conditions at: UHHH (KHABAROVSK/NOVY , RU) observed 2130 UTC 17 February 2019
Temperature: -9.0°C (16°F)
Dewpoint: -16.0°C ( 3°F) [RH = 57%]
Pressure (altimeter): 29.88 inches Hg (1012.0 mb)
Winds: from the W (260 degrees) at 16 MPH (14 knots; 7.2 m/s)
Visibility: 6 or more miles (10+ km)
Ceiling: ceiling and visibility are OK
Clouds: unknown
Weather: no significant weather observed at this time

METAR text: UHHH 172100Z 26007MPS CAVOK M09/M16 Q1012 R23L/090060 NOSIG RMK QFE753/1004
Conditions at: UHHH (KHABAROVSK/NOVY , RU) observed 2100 UTC 17 February 2019
Temperature: -9.0°C (16°F)
Dewpoint: -16.0°C ( 3°F) [RH = 57%]
Pressure (altimeter): 29.88 inches Hg (1012.0 mb)
Winds: from the W (260 degrees) at 16 MPH (14 knots; 7.2 m/s)
Visibility: 6 or more miles (10+ km)
Ceiling: ceiling and visibility are OK
Clouds: unknown
Weather: no significant weather observed at this time

METAR text: UHHH 172030Z 27007MPS CAVOK M09/M16 Q1012 R23L/090060 NOSIG RMK QFE753/1004
Conditions at: UHHH (KHABAROVSK/NOVY , RU) observed 2030 UTC 17 February 2019
Temperature: -9.0°C (16°F)
Dewpoint: -16.0°C ( 3°F) [RH = 57%]
Pressure (altimeter): 29.88 inches Hg (1012.0 mb)
Winds: from the W (270 degrees) at 16 MPH (14 knots; 7.2 m/s)
Visibility: 6 or more miles (10+ km)
Ceiling: ceiling and visibility are OK
Clouds: unknown
Weather: no significant weather observed at this time

METAR text: UHHH 172000Z 26008MPS CAVOK M09/M16 Q1012 R23L/090060 NOSIG RMK QFE752/1003
Conditions at: UHHH (KHABAROVSK/NOVY , RU) observed 2000 UTC 17 February 2019
Temperature: -9.0°C (16°F)
Dewpoint: -16.0°C ( 3°F) [RH = 57%]
Pressure (altimeter): 29.88 inches Hg (1012.0 mb)
Winds: from the W (260 degrees) at 18 MPH (16 knots; 8.2 m/s)
Visibility: 6 or more miles (10+ km)
Ceiling: ceiling and visibility are OK
Clouds: unknown
Weather: no significant weather observed at this time

Forecast for: UHHH (KHABAROVSK/NOVY , RU)
Text: TAF UHHH 190446Z 1906/2012 27003MPS CAVOK
Forecast period: 0600 to 0800 UTC 19 February 2019
Forecast type: FROM: standard forecast or significant change
Winds: from the W (270 degrees) at 7 MPH (6 knots; 3.1 m/s)
Visibility: 6 or more miles 10+ km)
Ceiling: unknown
Clouds: missing
Weather: NSW  (no significant weather)
Text: BECMG 1908/1910 04003MPS
Forecast period: 0800 UTC 19 February 2019 to 1200 UTC 20 February 2019
Forecast type: BECOMING: Conditions expected to become as follows by 1000 UTC 19 February 2019
Winds: from the NE (40 degrees) at 7 MPH (6 knots; 3.1 m/s)
Visibility: 6 or more miles 10+ km)
Ceiling: unknown
Clouds: missing
Weather: NSW  (no significant weather)